createdAt,value
2022-08-09T00:00:00.706Z,0.90
2022-08-09T00:02:32.207Z,1.10
2022-08-09T00:05:03.051Z,1.03
2022-08-09T00:07:47.806Z,1.00
2022-08-09T00:10:21.090Z,1.20
2022-08-09T00:12:53.154Z,1.00
2022-08-09T00:15:26.739Z,1.30
2022-08-09T00:18:11.612Z,1.10
2022-08-09T00:20:42.125Z,1.17
2022-08-09T00:23:56.554Z,1.20
2022-08-09T00:26:05.523Z,1.07
2022-08-09T00:28:34.602Z,1.10
2022-08-09T00:31:09.177Z,1.03
2022-08-09T00:33:52.143Z,0.90
2022-08-09T00:36:20.447Z,1.17
2022-08-09T00:38:50.876Z,1.17
2022-08-09T00:44:11.596Z,1.20
2022-08-09T00:44:25.746Z,1.10
2022-08-09T00:47:05.182Z,1.07
2022-08-09T00:49:34.067Z,1.10
2022-08-09T00:52:05.936Z,1.20
2022-08-09T00:54:43.788Z,1.00
2022-08-09T00:57:24.822Z,1.30
2022-08-09T01:00:03.062Z,1.00
2022-08-09T01:02:52.322Z,1.20
2022-08-09T01:05:46.413Z,1.30
2022-08-09T01:08:26.829Z,1.20
2022-08-09T01:11:08.509Z,1.30
2022-08-09T01:13:58.735Z,1.07
2022-08-09T01:16:32.894Z,1.40
2022-08-09T01:19:06.179Z,1.00
2022-08-09T01:21:53.763Z,1.30
2022-08-09T01:24:36.737Z,1.17
2022-08-09T01:27:11.447Z,1.30
2022-08-09T01:29:55.281Z,1.40
2022-08-09T01:32:31.645Z,1.07
2022-08-09T01:35:28.382Z,1.10
2022-08-09T01:38:08.050Z,1.13
2022-08-09T01:40:42.683Z,1.20
2022-08-09T01:43:13.029Z,1.37
2022-08-09T01:45:46.102Z,1.30
2022-08-09T01:48:17.325Z,1.40
2022-08-09T01:50:54.982Z,1.17
2022-08-09T01:53:29.229Z,1.30
2022-08-09T01:56:10.941Z,1.30
2022-08-09T01:58:44.027Z,1.50
2022-08-09T02:01:18.329Z,1.30
2022-08-09T02:03:48.093Z,1.50
2022-08-09T02:06:17.932Z,1.60
2022-08-09T02:08:58.833Z,1.27
2022-08-09T02:11:42.153Z,1.10
2022-08-09T02:14:25.102Z,1.90
2022-08-09T02:16:59.755Z,1.30
2022-08-09T02:19:43.960Z,1.27
2022-08-09T02:22:19.074Z,1.17
2022-08-09T02:24:59.663Z,1.40
2022-08-09T02:27:57.353Z,1.20
2022-08-09T02:30:20.101Z,1.60
2022-08-09T02:32:51.052Z,1.20
2022-08-09T02:35:32.350Z,1.40
2022-08-09T02:38:23.636Z,1.50
2022-08-09T02:41:00.470Z,1.23
2022-08-09T02:43:30.473Z,1.53
2022-08-09T02:46:18.703Z,1.37
2022-08-09T02:48:48.107Z,1.20
2022-08-09T02:51:22.549Z,1.30
2022-08-09T02:54:01.000Z,1.30
2022-08-09T02:56:30.862Z,1.30
2022-08-09T02:59:01.306Z,1.60
2022-08-09T03:02:05.117Z,1.40
2022-08-09T03:04:26.262Z,1.53
2022-08-09T03:06:59.849Z,1.60
2022-08-09T03:09:42.966Z,1.37
2022-08-09T03:12:13.945Z,1.40
2022-08-09T03:14:43.014Z,1.33
2022-08-09T03:17:20.418Z,1.53
2022-08-09T03:20:00.789Z,1.40
2022-08-09T03:22:41.555Z,1.70
2022-08-09T03:25:21.898Z,1.43
2022-08-09T03:27:56.772Z,1.53
2022-08-09T03:30:33.696Z,1.70
2022-08-09T03:33:13.352Z,1.90
2022-08-09T03:36:12.401Z,1.60
2022-08-09T03:38:37.388Z,1.70
2022-08-09T03:41:15.059Z,1.97
2022-08-09T03:43:51.801Z,1.67
2022-08-09T03:46:32.688Z,2.07
2022-08-09T03:49:08.941Z,1.83
2022-08-09T03:51:55.980Z,1.50
2022-08-09T03:54:31.345Z,1.93
2022-08-09T03:57:01.669Z,1.40
2022-08-09T03:59:42.943Z,1.60
2022-08-09T04:02:11.744Z,1.70
2022-08-09T04:04:46.206Z,1.80
2022-08-09T04:07:18.049Z,1.70
2022-08-09T04:09:50.182Z,1.90
2022-08-09T04:12:44.571Z,1.60
2022-08-09T04:15:29.665Z,1.60
2022-08-09T04:18:01.619Z,1.57
2022-08-09T04:20:32.655Z,1.63
2022-08-09T04:23:01.958Z,1.57
2022-08-09T04:25:30.715Z,1.80
2022-08-09T04:27:59.823Z,1.50
2022-08-09T04:30:31.680Z,1.47
2022-08-09T04:33:01.911Z,1.87
2022-08-09T04:35:32.677Z,1.70
2022-08-09T04:38:03.629Z,2.07
2022-08-09T04:40:46.148Z,1.90
2022-08-09T04:43:14.156Z,1.87
2022-08-09T04:45:53.968Z,1.80
2022-08-09T04:48:23.771Z,1.90
2022-08-09T04:51:03.043Z,1.63
2022-08-09T04:53:31.444Z,1.50
2022-08-09T04:55:59.946Z,2.03
2022-08-09T04:58:29.741Z,1.73
2022-08-09T05:00:58.185Z,1.80
2022-08-09T05:03:41.305Z,1.70
2022-08-09T05:06:27.117Z,1.70
2022-08-09T05:09:00.393Z,1.97
2022-08-09T05:11:32.446Z,1.77
2022-08-09T05:14:06.089Z,1.93
2022-08-09T05:16:58.387Z,1.73
2022-08-09T05:19:25.530Z,1.50
2022-08-09T05:21:56.459Z,1.70
2022-08-09T05:24:25.187Z,1.67
2022-08-09T05:26:53.530Z,1.80
2022-08-09T05:29:24.451Z,1.70
2022-08-09T05:32:01.486Z,1.87
2022-08-09T05:34:32.360Z,1.77
2022-08-09T05:37:07.050Z,1.80
2022-08-09T05:39:43.333Z,2.00
2022-08-09T05:42:17.247Z,2.10
2022-08-09T05:44:50.762Z,1.90
2022-08-09T05:47:19.354Z,2.07
2022-08-09T05:50:26.838Z,2.03
2022-08-09T05:52:39.908Z,1.90
2022-08-09T05:55:18.058Z,1.80
2022-08-09T05:57:51.088Z,1.73
2022-08-09T06:00:28.974Z,1.90
2022-08-09T06:02:58.040Z,2.10
2022-08-09T06:05:49.745Z,2.07
2022-08-09T06:08:19.571Z,2.00
2022-08-09T06:10:52.929Z,2.00
2022-08-09T06:13:22.176Z,1.97
2022-08-09T06:15:51.361Z,1.83
2022-08-09T06:18:23.891Z,1.93
2022-08-09T06:20:54.916Z,2.30
2022-08-09T06:23:57.935Z,1.90
2022-08-09T06:26:20.414Z,1.90
2022-08-09T06:28:49.919Z,1.80
2022-08-09T06:31:39.084Z,2.00
2022-08-09T06:34:09.443Z,1.90
2022-08-09T06:36:37.520Z,1.80
2022-08-09T06:39:15.811Z,1.77
2022-08-09T06:42:08.684Z,2.10
2022-08-09T06:44:31.945Z,2.50
2022-08-09T06:47:01.444Z,1.80
2022-08-09T06:50:11.403Z,2.00
2022-08-09T06:52:18.792Z,1.87
2022-08-09T06:54:54.331Z,1.70
2022-08-09T06:57:25.819Z,1.87
2022-08-09T07:00:50.246Z,1.67
2022-08-09T07:02:59.485Z,1.80
2022-08-09T07:05:58.419Z,1.83
2022-08-09T07:08:16.355Z,2.17
2022-08-09T07:10:46.412Z,1.80
2022-08-09T07:13:28.307Z,1.97
2022-08-09T07:16:42.521Z,2.30
2022-08-09T07:18:47.596Z,1.90
2022-08-09T07:21:18.771Z,1.90
2022-08-09T07:23:56.758Z,2.17
2022-08-09T07:26:29.218Z,1.60
2022-08-09T07:29:08.635Z,1.90
2022-08-09T07:31:45.247Z,1.93
2022-08-09T07:34:20.390Z,1.80
2022-08-09T07:36:49.200Z,1.90
2022-08-09T07:39:20.370Z,1.90
2022-08-09T07:42:08.158Z,1.63
2022-08-09T07:44:51.639Z,1.90
2022-08-09T07:47:23.259Z,2.00
2022-08-09T07:50:05.347Z,1.90
2022-08-09T07:52:38.384Z,1.70
2022-08-09T07:55:09.479Z,1.93
2022-08-09T07:57:46.520Z,2.00
2022-08-09T08:00:20.552Z,1.57
2022-08-09T08:03:05.248Z,2.00
2022-08-09T08:05:53.621Z,1.83
2022-08-09T08:09:01.019Z,2.30
2022-08-09T08:12:09.230Z,2.00
2022-08-09T08:14:04.788Z,1.70
2022-08-09T08:16:34.777Z,1.90
2022-08-09T08:19:04.479Z,1.90
2022-08-09T08:21:32.708Z,2.00
2022-08-09T08:24:01.308Z,2.10
2022-08-09T08:26:41.999Z,2.10
2022-08-09T08:29:27.927Z,2.00
2022-08-09T08:32:03.795Z,1.83
2022-08-09T08:34:34.682Z,2.10
2022-08-09T08:37:05.017Z,2.00
2022-08-09T08:39:43.631Z,2.10
2022-08-09T08:42:12.496Z,2.00
2022-08-09T08:44:43.699Z,1.97
2022-08-09T08:47:14.589Z,1.77
2022-08-09T08:49:47.874Z,2.33
2022-08-09T08:55:07.379Z,2.10
2022-08-09T08:57:37.146Z,2.23
2022-08-09T09:00:17.263Z,2.00
2022-08-09T09:02:52.508Z,1.80
2022-08-09T09:05:58.882Z,1.73
2022-08-09T09:08:29.743Z,2.07
2022-08-09T09:11:01.716Z,2.00
2022-08-09T09:13:42.189Z,2.03
2022-08-09T09:16:29.870Z,1.90
2022-08-09T09:19:22.564Z,1.80
2022-08-09T09:22:03.962Z,1.93
2022-08-09T09:24:34.653Z,2.07
2022-08-09T09:27:04.601Z,1.83
2022-08-09T09:30:09.349Z,1.80
2022-08-09T09:32:32.323Z,1.80
2022-08-09T09:35:07.778Z,2.40
2022-08-09T09:37:40.484Z,1.92
2022-08-09T09:40:11.488Z,2.00
2022-08-09T09:42:39.568Z,2.00
2022-08-09T09:45:14.312Z,1.80
2022-08-09T09:47:59.079Z,1.90
2022-08-09T09:50:49.817Z,1.90
2022-08-09T09:53:44.046Z,2.10
2022-08-09T09:56:19.740Z,2.00
2022-08-09T09:58:57.856Z,1.80
2022-08-09T10:01:37.792Z,2.10
2022-08-09T10:04:30.465Z,1.75
2022-08-09T10:07:03.600Z,1.95
2022-08-09T10:09:49.091Z,1.92
2022-08-09T10:12:36.135Z,2.20
2022-08-09T10:15:17.167Z,2.47
2022-08-09T10:17:56.737Z,1.90
2022-08-09T10:20:35.462Z,2.10
2022-08-09T10:23:16.933Z,1.75
2022-08-09T10:26:06.184Z,2.08
2022-08-09T10:28:37.467Z,2.03
2022-08-09T10:34:09.041Z,1.85
2022-08-09T10:36:45.493Z,2.15
2022-08-09T10:39:15.651Z,1.75
2022-08-09T10:41:46.265Z,2.13
2022-08-09T10:44:19.096Z,1.92
2022-08-09T10:47:03.830Z,1.95
2022-08-09T10:49:51.390Z,1.95
2022-08-09T10:52:45.089Z,1.80
2022-08-09T10:55:24.197Z,1.73
2022-08-09T10:57:52.452Z,1.92
2022-08-09T11:00:56.960Z,1.77
2022-08-09T11:03:50.328Z,2.50
2022-08-09T11:06:26.472Z,1.90
2022-08-09T11:08:59.660Z,1.90
2022-08-09T11:12:29.772Z,1.70
2022-08-09T11:15:01.696Z,2.00
2022-08-09T11:17:53.369Z,2.00
2022-08-09T11:20:50.227Z,1.77
2022-08-09T11:23:23.890Z,1.95
2022-08-09T11:26:00.345Z,2.17
2022-08-09T11:28:55.803Z,2.00
2022-08-09T11:31:53.061Z,1.85
2022-08-09T11:34:37.323Z,1.90
2022-08-09T11:37:07.589Z,2.20
2022-08-09T11:40:04.962Z,1.90
2022-08-09T11:42:48.753Z,1.80
2022-08-09T11:45:37.814Z,1.73
2022-08-09T11:48:26.828Z,1.85
2022-08-09T11:52:56.691Z,1.90
2022-08-09T11:54:29.729Z,1.92
2022-08-09T11:57:47.383Z,2.03
2022-08-09T12:00:29.852Z,2.00
2022-08-09T12:03:50.611Z,1.73
2022-08-09T12:05:53.326Z,1.52
2022-08-09T12:08:22.462Z,2.00
2022-08-09T12:10:52.863Z,1.80
2022-08-09T12:14:07.397Z,1.80
2022-08-09T12:16:37.294Z,1.83
2022-08-09T12:19:09.563Z,1.85
2022-08-09T12:21:48.670Z,2.10
2022-08-09T12:24:35.301Z,2.20
2022-08-09T12:29:14.624Z,1.90
2022-08-09T12:30:35.327Z,1.95
2022-08-09T12:33:04.842Z,1.98
2022-08-09T12:35:37.835Z,2.10
2022-08-09T12:38:37.420Z,1.77
2022-08-09T12:41:07.455Z,1.90
2022-08-09T12:44:05.381Z,1.60
2022-08-09T12:46:29.000Z,1.77
2022-08-09T12:48:58.742Z,1.80
2022-08-09T12:51:52.498Z,1.95
2022-08-09T12:54:15.574Z,1.92
2022-08-09T12:56:53.785Z,1.90
2022-08-09T12:59:24.083Z,2.20
2022-08-09T13:02:07.034Z,1.90
2022-08-09T13:04:38.761Z,1.88
2022-08-09T13:07:16.544Z,1.70
2022-08-09T13:09:55.434Z,1.60
2022-08-09T13:12:24.890Z,1.90
2022-08-09T13:14:55.021Z,1.77
2022-08-09T13:18:02.734Z,1.95
2022-08-09T13:20:20.412Z,1.67
2022-08-09T13:23:05.298Z,1.58
2022-08-09T13:25:42.247Z,2.05
2022-08-09T13:28:18.722Z,1.80
2022-08-09T13:32:15.902Z,1.80
2022-08-09T13:33:52.802Z,1.60
2022-08-09T13:36:41.110Z,1.50
2022-08-09T13:41:56.537Z,1.63
2022-08-09T13:42:05.473Z,1.63
2022-08-09T13:44:42.204Z,1.83
2022-08-09T13:47:33.482Z,1.63
2022-08-09T13:50:04.362Z,1.63
2022-08-09T13:52:42.812Z,2.33
2022-08-09T13:55:13.476Z,1.73
2022-08-09T13:57:43.983Z,1.60
2022-08-09T14:00:15.921Z,2.17
2022-08-09T14:03:03.335Z,1.92
2022-08-09T14:05:56.640Z,1.70
2022-08-09T14:08:26.747Z,2.08
2022-08-09T14:10:55.308Z,1.75
2022-08-09T14:14:15.896Z,2.10
2022-08-09T14:16:15.432Z,1.92
2022-08-09T14:18:50.591Z,1.90
2022-08-09T14:21:24.391Z,1.70
2022-08-09T14:23:57.440Z,1.90
2022-08-09T14:26:31.636Z,1.98
2022-08-09T14:30:15.170Z,2.00
2022-08-09T14:32:04.479Z,1.92
2022-08-09T14:34:41.178Z,1.80
2022-08-09T14:37:10.078Z,1.90
2022-08-09T14:39:47.913Z,2.10
2022-08-09T14:42:31.744Z,2.00
2022-08-09T14:46:39.172Z,1.90
2022-08-09T14:47:58.267Z,2.03
2022-08-09T14:50:28.336Z,1.88
2022-08-09T14:52:56.134Z,2.10
2022-08-09T14:55:25.546Z,1.95
2022-08-09T14:57:59.583Z,2.00
2022-08-09T15:00:30.303Z,1.80
2022-08-09T15:02:58.382Z,2.00
2022-08-09T15:05:28.397Z,2.10
2022-08-09T15:07:58.183Z,2.00
2022-08-09T15:10:29.347Z,1.90
2022-08-09T15:13:01.424Z,1.90
2022-08-09T15:15:34.514Z,2.10
2022-08-09T15:18:12.249Z,1.80
2022-08-09T15:21:57.165Z,1.90
2022-08-09T15:24:02.513Z,1.70
2022-08-09T15:26:28.405Z,1.70
2022-08-09T15:29:04.395Z,1.98
2022-08-09T15:31:41.901Z,2.00
2022-08-09T15:34:31.681Z,2.03
2022-08-09T15:37:01.144Z,1.85
2022-08-09T15:39:34.669Z,1.85
2022-08-09T15:42:14.818Z,2.40
2022-08-09T15:44:44.210Z,1.98
2022-08-09T15:47:14.311Z,1.98
2022-08-09T15:50:03.561Z,2.10
2022-08-09T15:52:35.219Z,2.15
2022-08-09T15:55:04.597Z,1.73
2022-08-09T15:57:44.396Z,2.10
2022-08-09T16:00:24.337Z,1.92
2022-08-09T16:02:54.807Z,2.03
2022-08-09T16:05:26.656Z,2.00
2022-08-09T16:08:15.238Z,2.00
2022-08-09T16:11:00.110Z,1.90
2022-08-09T16:14:03.903Z,2.25
2022-08-09T16:16:20.176Z,2.05
2022-08-09T16:18:53.994Z,2.20
2022-08-09T16:21:25.530Z,2.28
2022-08-09T16:23:55.775Z,1.95
2022-08-09T16:26:34.921Z,1.90
2022-08-09T16:29:11.355Z,1.83
2022-08-09T16:32:18.924Z,2.00
2022-08-09T16:34:29.414Z,2.00
2022-08-09T16:37:17.130Z,1.77
2022-08-09T16:39:54.816Z,1.80
2022-08-09T16:42:34.044Z,1.67
2022-08-09T16:45:03.692Z,1.63
2022-08-09T16:48:39.804Z,1.88
2022-08-09T16:50:28.686Z,1.88
2022-08-09T16:52:59.056Z,1.90
2022-08-09T16:55:26.781Z,1.90
2022-08-09T16:58:09.195Z,1.70
2022-08-09T17:00:42.802Z,2.00
2022-08-09T17:03:21.031Z,2.00
2022-08-09T17:06:06.778Z,1.70
2022-08-09T17:09:04.857Z,1.98
2022-08-09T17:11:41.327Z,1.80
2022-08-09T17:14:25.857Z,1.80
2022-08-09T17:17:01.616Z,1.80
2022-08-09T17:19:47.670Z,1.80
2022-08-09T17:22:35.671Z,1.60
2022-08-09T17:25:09.797Z,1.55
2022-08-09T17:27:49.354Z,1.60
2022-08-09T17:30:22.413Z,1.60
2022-08-09T17:32:57.441Z,1.65
2022-08-09T17:35:29.250Z,1.70
2022-08-09T17:38:12.603Z,1.42
2022-08-09T17:40:42.470Z,1.90
2022-08-09T17:43:33.976Z,1.63
2022-08-09T17:46:06.704Z,1.60
2022-08-09T17:48:40.043Z,1.58
2022-08-09T17:51:18.150Z,1.70
2022-08-09T17:53:51.841Z,1.92
2022-08-09T17:56:27.840Z,1.70
2022-08-09T17:59:03.149Z,1.60
2022-08-09T18:01:57.988Z,1.65
2022-08-09T18:04:27.453Z,1.50
2022-08-09T18:06:56.082Z,1.48
2022-08-09T18:09:25.250Z,1.45
2022-08-09T18:12:17.291Z,1.38
2022-08-09T18:14:49.673Z,1.48
2022-08-09T18:18:02.457Z,1.30
2022-08-09T18:20:56.681Z,1.40
2022-08-09T18:23:05.262Z,1.52
2022-08-09T18:25:53.222Z,1.40
2022-08-09T18:30:38.194Z,1.60
2022-08-09T18:31:11.404Z,1.20
2022-08-09T18:33:39.995Z,1.20
2022-08-09T18:36:25.294Z,1.42
2022-08-09T18:39:02.900Z,1.38
2022-08-09T18:41:34.176Z,1.27
2022-08-09T18:44:04.279Z,1.60
2022-08-09T18:46:50.003Z,1.25
2022-08-09T18:49:32.263Z,1.38
2022-08-09T18:52:13.386Z,1.25
2022-08-09T18:54:52.129Z,1.30
2022-08-09T18:57:22.795Z,1.40
2022-08-09T18:59:57.820Z,1.52
2022-08-09T19:02:32.926Z,1.35
2022-08-09T19:05:14.094Z,1.30
2022-08-09T19:08:04.175Z,1.30
2022-08-09T19:10:37.136Z,1.63
2022-08-09T19:13:20.526Z,1.27
2022-08-09T19:15:56.960Z,1.42
2022-08-09T19:18:33.488Z,1.25
2022-08-09T19:21:09.563Z,1.40
2022-08-09T19:24:36.082Z,1.10
2022-08-09T19:26:31.430Z,1.20
2022-08-09T19:29:01.910Z,1.10
2022-08-09T19:31:44.318Z,1.77
2022-08-09T19:34:22.089Z,1.55
2022-08-09T19:36:52.037Z,1.55
2022-08-09T19:39:43.842Z,1.52
2022-08-09T19:42:14.716Z,1.45
2022-08-09T19:44:50.787Z,1.58
2022-08-09T19:47:23.378Z,1.17
2022-08-09T19:50:08.502Z,1.55
2022-08-09T19:52:51.811Z,1.60
2022-08-09T19:55:30.742Z,1.40
2022-08-09T19:58:16.677Z,1.20
2022-08-09T20:00:46.832Z,1.27
2022-08-09T20:04:11.490Z,1.30
2022-08-09T20:06:20.938Z,1.23
2022-08-09T20:08:55.343Z,1.20
2022-08-09T20:11:43.072Z,1.20
2022-08-09T20:14:15.769Z,1.13
2022-08-09T20:16:53.545Z,1.45
2022-08-09T20:19:48.775Z,1.23
2022-08-09T20:22:09.977Z,1.38
2022-08-09T20:24:40.922Z,1.10
2022-08-09T20:27:14.090Z,1.30
2022-08-09T20:29:42.013Z,1.30
2022-08-09T20:32:30.562Z,1.35
2022-08-09T20:34:59.771Z,1.30
2022-08-09T20:38:18.782Z,1.05
2022-08-09T20:40:19.167Z,1.23
2022-08-09T20:42:59.983Z,1.23
2022-08-09T20:46:00.532Z,1.20
2022-08-09T20:48:28.965Z,1.20
2022-08-09T20:50:58.960Z,1.30
2022-08-09T20:53:35.444Z,1.10
2022-08-09T20:56:06.835Z,1.30
2022-08-09T20:58:38.295Z,1.60
2022-08-09T21:01:33.383Z,1.10
2022-08-09T21:05:48.805Z,1.13
2022-08-09T21:06:47.550Z,1.30
2022-08-09T21:09:24.831Z,1.60
2022-08-09T21:14:40.187Z,1.10
2022-08-09T21:18:11.158Z,1.47
2022-08-09T21:20:18.877Z,1.30
2022-08-09T21:22:46.713Z,1.40
2022-08-09T21:25:37.962Z,1.30
2022-08-09T21:28:07.442Z,1.30
2022-08-09T21:30:41.756Z,1.47
2022-08-09T21:33:10.342Z,1.77
2022-08-09T21:35:40.927Z,1.40
2022-08-09T21:38:31.353Z,1.63
2022-08-09T21:41:00.092Z,1.27
2022-08-09T21:43:31.455Z,1.43
2022-08-09T21:46:17.795Z,1.80
2022-08-09T21:48:49.055Z,1.30
2022-08-09T21:51:23.999Z,1.60
2022-08-09T21:53:54.338Z,1.20
2022-08-09T21:56:42.837Z,1.30
2022-08-09T21:59:10.743Z,1.20
2022-08-09T22:01:59.234Z,1.20
2022-08-09T22:04:54.998Z,1.40
2022-08-09T22:07:35.365Z,1.20
2022-08-09T22:10:06.464Z,1.50
2022-08-09T22:12:35.257Z,1.30
2022-08-09T22:15:08.832Z,1.27
2022-08-09T22:17:46.541Z,1.40
2022-08-09T22:20:16.864Z,1.00
2022-08-09T22:22:49.603Z,1.30
2022-08-09T22:26:08.138Z,1.23
2022-08-09T22:28:07.123Z,1.33
2022-08-09T22:30:36.660Z,1.57
2022-08-09T22:33:09.172Z,1.50
2022-08-09T22:36:01.624Z,1.23
2022-08-09T22:38:26.301Z,1.40
2022-08-09T22:40:57.887Z,1.40
2022-08-09T22:44:01.783Z,1.40
2022-08-09T22:48:16.873Z,1.40
2022-08-09T22:49:09.724Z,1.43
2022-08-09T22:51:39.429Z,1.23
2022-08-09T22:54:11.512Z,1.40
2022-08-09T22:56:41.585Z,1.40
2022-08-09T22:59:56.933Z,1.60
2022-08-09T23:01:58.291Z,1.40
2022-08-09T23:04:27.523Z,1.33
2022-08-09T23:07:18.682Z,1.23
2022-08-09T23:10:06.887Z,1.37
2022-08-09T23:12:34.965Z,1.40
2022-08-09T23:15:03.078Z,1.43
2022-08-09T23:17:32.790Z,1.53
2022-08-09T23:20:07.369Z,1.40
2022-08-09T23:22:36.591Z,1.27
2022-08-09T23:25:05.239Z,1.40
2022-08-09T23:27:35.012Z,1.23
2022-08-09T23:30:03.786Z,1.53
2022-08-09T23:32:31.920Z,1.50
2022-08-09T23:35:00.083Z,1.30
2022-08-09T23:37:29.303Z,1.30
2022-08-09T23:39:57.311Z,1.30
2022-08-09T23:42:27.332Z,1.40
2022-08-09T23:44:55.539Z,1.27
2022-08-09T23:47:23.292Z,1.27
2022-08-09T23:49:51.360Z,1.50
2022-08-09T23:52:19.374Z,1.30
2022-08-09T23:54:53.662Z,1.23
2022-08-09T23:57:21.987Z,1.40
